Time;durP1;ratioP1;P1;durP2;ratioP2;P2;SDS_P1;SDS_P2;PMS_P1;PMS_P2;Temp;Humidity;BMP_temperature;BMP_pressure;BME280_temperature;BME280_humidity;BME280_pressure;Samples;Min_cycle;Max_cycle;Signal;HPM_P1;HPM_P2
2021/09/28 00:00:46;;;;;;;2.25;2.25;;;;;;;12.35;90.39;102676.44;6261325;28;20433;-72
2021/09/28 00:03:50;;;;;;;2.33;2.17;;;;;;;12.42;89.71;102669.22;6261999;28;20229;-72
2021/09/28 00:06:54;;;;;;;2.85;2.63;;;;;;;12.43;89.26;102673.66;6261501;28;20185;-71
2021/09/28 00:10:00;;;;;;;3.08;2.63;;;;;;;12.37;89.78;102679.03;6262830;28;20288;-71
2021/09/28 00:13:05;;;;;;;2.08;1.88;;;;;;;12.34;89.54;102682.97;6262465;28;20237;-72
2021/09/28 00:16:12;;;;;;;3.45;2.70;;;;;;;12.38;88.83;102670.63;6262538;28;20212;-71
2021/09/28 00:19:17;;;;;;;2.40;2.20;;;;;;;12.43;88.25;102673.66;6262728;28;20189;-72
2021/09/28 00:22:21;;;;;;;2.47;2.38;;;;;;;12.22;89.36;102681.69;6262295;28;20260;-72
2021/09/28 00:25:26;;;;;;;2.30;2.20;;;;;;;12.18;89.68;102674.91;6261263;28;20213;-72
2021/09/28 00:28:30;;;;;;;4.35;2.75;;;;;;;12.11;89.85;102678.56;6262313;28;20249;-72
2021/09/28 00:31:35;;;;;;;2.10;2.10;;;;;;;12.12;89.45;102681.09;6262271;28;20223;-72
2021/09/28 00:34:40;;;;;;;8.38;2.00;;;;;;;12.33;87.78;102677.66;6262343;28;20188;-72
2021/09/28 00:37:44;;;;;;;2.22;1.95;;;;;;;12.29;87.04;102676.34;6262354;28;20189;-71
2021/09/28 00:40:50;;;;;;;3.92;2.35;;;;;;;12.21;87.84;102674.53;6261413;28;20239;-72
2021/09/28 00:43:57;;;;;;;2.33;2.17;;;;;;;12.30;87.05;102673.41;6266887;28;20192;-72
2021/09/28 00:47:01;;;;;;;3.95;2.00;;;;;;;12.12;87.36;102670.16;6265774;28;20527;-72
2021/09/28 00:50:07;;;;;;;2.17;2.08;;;;;;;12.17;86.72;102678.66;6266180;28;20185;-71
2021/09/28 00:53:13;;;;;;;2.40;2.20;;;;;;;12.27;85.44;102671.06;6266987;28;20184;-72
2021/09/28 00:56:20;;;;;;;2.10;2.00;;;;;;;12.18;85.81;102674.91;6265907;28;20551;-71
2021/09/28 00:59:25;;;;;;;2.95;1.85;;;;;;;12.09;86.32;102658.72;6266898;28;20188;-71
2021/09/28 01:02:29;;;;;;;2.38;2.05;;;;;;;12.12;86.15;102674.78;6266105;28;20200;-72
2021/09/28 01:05:33;;;;;;;1.80;1.80;;;;;;;12.28;84.64;102664.53;6265576;28;20237;-71
2021/09/28 01:08:37;;;;;;;1.80;1.70;;;;;;;12.17;86.19;102667.72;6265101;28;20415;-71
2021/09/28 01:11:43;;;;;;;3.88;2.10;;;;;;;12.20;84.86;102661.88;6266199;28;20310;-72
2021/09/28 01:14:47;;;;;;;2.53;2.30;;;;;;;12.09;85.63;102662.31;6266215;28;20189;-72
2021/09/28 01:17:51;;;;;;;2.83;2.10;;;;;;;12.03;86.84;102665.78;6266305;28;20216;-71
2021/09/28 01:20:56;;;;;;;3.78;2.08;;;;;;;11.97;87.38;102658.28;6266011;28;20207;-72
2021/09/28 01:24:01;;;;;;;2.05;1.85;;;;;;;12.07;86.94;102664.38;6266028;28;20214;-72
2021/09/28 01:27:07;;;;;;;2.00;2.00;;;;;;;11.98;88.21;102668.22;6264653;28;20241;-71
2021/09/28 01:30:12;;;;;;;3.67;2.30;;;;;;;11.92;88.61;102658.00;6266072;28;20256;-72
2021/09/28 01:33:17;;;;;;;5.97;2.15;;;;;;;11.92;88.26;102658.00;6264513;28;20491;-72
2021/09/28 01:36:23;;;;;;;3.70;2.40;;;;;;;12.01;88.26;102656.91;6265800;28;20189;-71
2021/09/28 01:39:27;;;;;;;1.88;1.83;;;;;;;12.07;87.90;102650.69;6264428;28;20380;-72
2021/09/28 01:42:31;;;;;;;2.20;2.10;;;;;;;12.17;87.77;102651.28;6264318;28;20185;-71
2021/09/28 01:45:36;;;;;;;2.40;2.20;;;;;;;12.21;87.26;102647.16;6265238;28;20219;-72
2021/09/28 01:48:45;;;;;;;2.45;2.33;;;;;;;12.10;88.46;102635.78;6265117;28;20185;-71
2021/09/28 01:51:50;;;;;;;3.83;2.20;;;;;;;12.25;86.14;102632.06;6265023;28;20252;-72
2021/09/28 01:54:54;;;;;;;3.90;2.00;;;;;;;12.33;86.24;102637.47;6263972;28;20192;-71
2021/09/28 01:57:59;;;;;;;1.90;1.85;;;;;;;12.35;85.03;102629.91;6264609;28;20263;-72
2021/09/28 02:01:03;;;;;;;2.15;2.05;;;;;;;12.38;85.46;102629.56;6264941;28;20207;-72
2021/09/28 02:04:09;;;;;;;1.77;1.77;;;;;;;12.43;84.16;102624.38;6264570;28;20243;-72
2021/09/28 02:07:15;;;;;;;2.45;2.28;;;;;;;12.49;84.26;102628.25;6264168;28;20217;-72
2021/09/28 02:10:19;;;;;;;2.00;1.90;;;;;;;12.51;83.92;102628.91;6264967;28;20227;-72
2021/09/28 02:13:23;;;;;;;2.60;2.17;;;;;;;12.38;85.21;102632.28;6265056;28;20185;-72
2021/09/28 02:16:27;;;;;;;2.28;2.17;;;;;;;12.32;85.11;102624.84;6264933;28;20195;-71
2021/09/28 02:19:32;;;;;;;2.25;2.15;;;;;;;12.52;84.24;102616.94;6264083;28;20224;-71
2021/09/28 02:22:38;;;;;;;1.90;1.80;;;;;;;12.45;84.54;102605.84;6264393;28;20181;-72
2021/09/28 02:25:43;;;;;;;1.90;1.90;;;;;;;12.48;84.68;102608.22;6263796;28;20213;-72
2021/09/28 02:28:47;;;;;;;2.00;1.90;;;;;;;12.56;83.94;102596.34;6264584;28;20258;-71
2021/09/28 02:31:51;;;;;;;2.40;2.20;;;;;;;12.56;84.11;102607.28;6263223;28;20504;-72
2021/09/28 02:34:56;;;;;;;1.98;1.80;;;;;;;12.53;85.73;102608.53;6263879;28;20185;-72
2021/09/28 02:38:01;;;;;;;2.28;2.17;;;;;;;12.43;84.58;102607.09;6263318;28;20189;-72
2021/09/28 02:41:06;;;;;;;3.33;2.25;;;;;;;12.56;83.53;102608.16;6263339;28;20192;-72
2021/09/28 02:44:11;;;;;;;1.92;1.90;;;;;;;12.73;82.85;102607.97;6263957;28;20247;-72
2021/09/28 02:47:15;;;;;;;2.25;2.15;;;;;;;12.78;82.46;102605.53;6264167;28;20215;-71
2021/09/28 02:50:19;;;;;;;3.72;2.08;;;;;;;12.76;82.81;102596.66;6263879;28;20252;-71
2021/09/28 02:53:25;;;;;;;2.47;2.38;;;;;;;12.63;83.06;102607.41;6263988;28;20223;-71
2021/09/28 02:56:29;;;;;;;2.42;2.33;;;;;;;12.69;82.46;102602.03;6263523;28;20256;-71
2021/09/28 02:59:34;;;;;;;5.82;2.20;;;;;;;12.78;82.64;102602.78;6262541;28;20481;-71
2021/09/28 03:02:38;;;;;;;3.58;2.28;;;;;;;12.66;82.73;102596.09;6263115;28;20371;-71
2021/09/28 03:05:42;;;;;;;2.85;2.25;;;;;;;12.65;83.07;102586.16;6262107;28;20299;-71
2021/09/28 03:08:47;;;;;;;2.42;2.20;;;;;;;12.69;81.84;102602.03;6262393;28;20380;-72
2021/09/28 03:11:52;;;;;;;1.83;1.83;;;;;;;12.78;81.25;102594.56;6263551;28;20184;-71
2021/09/28 03:14:56;;;;;;;2.00;2.00;;;;;;;12.68;81.17;102591.25;6263653;28;20263;-72
2021/09/28 03:18:00;;;;;;;2.33;2.13;;;;;;;12.64;81.49;102599.00;6262294;28;20208;-71
2021/09/28 03:21:04;;;;;;;1.90;1.75;;;;;;;12.69;80.93;102590.22;6262956;28;20185;-72
2021/09/28 03:24:11;;;;;;;2.30;2.13;;;;;;;12.73;80.39;102586.94;6262684;28;20185;-72
2021/09/28 03:27:15;;;;;;;2.20;2.10;;;;;;;12.62;80.83;102587.38;6262800;28;20209;-72
2021/09/28 03:30:19;;;;;;;3.58;2.45;;;;;;;12.69;81.82;102591.06;6262817;28;20192;-71
2021/09/28 03:33:23;;;;;;;2.55;2.35;;;;;;;12.68;80.58;102581.16;6262284;28;20184;-71
2021/09/28 03:36:28;;;;;;;3.05;2.30;;;;;;;12.69;80.90;102584.72;6261916;28;20196;-71
2021/09/28 03:39:33;;;;;;;2.17;1.95;;;;;;;12.66;80.59;102579.66;6262763;28;20185;-72
2021/09/28 03:42:38;;;;;;;3.05;1.70;;;;;;;12.63;80.21;102582.78;6262973;28;20255;-71
2021/09/28 03:45:42;;;;;;;3.13;2.33;;;;;;;12.65;79.81;102578.81;6261703;28;20443;-71
2021/09/28 03:48:47;;;;;;;3.25;1.73;;;;;;;12.61;80.03;102576.63;6262404;28;20255;-72
2021/09/28 03:51:51;;;;;;;3.50;2.20;;;;;;;12.75;79.32;102578.50;6262874;28;20192;-72
2021/09/28 03:54:57;;;;;;;2.35;2.20;;;;;;;12.70;80.10;102576.34;6261497;28;20185;-72
2021/09/28 03:58:01;;;;;;;2.80;2.53;;;;;;;12.69;80.34;102577.38;6262594;28;20192;-72
2021/09/28 04:01:06;;;;;;;2.55;2.45;;;;;;;12.70;79.40;102576.34;6262388;28;20201;-72
2021/09/28 04:04:11;;;;;;;2.25;2.15;;;;;;;12.64;79.45;102576.22;6262171;28;20228;-72
2021/09/28 04:07:15;;;;;;;9.43;2.20;;;;;;;12.74;79.21;102565.84;6262610;28;20218;-72
2021/09/28 04:10:21;;;;;;;4.75;2.03;;;;;;;12.74;79.42;102571.31;6261426;28;20532;-71
2021/09/28 04:13:26;;;;;;;3.97;2.10;;;;;;;12.77;79.03;102581.91;6262421;28;20185;-71
2021/09/28 04:16:30;;;;;;;6.20;2.10;;;;;;;12.82;79.37;102579.44;6265761;28;20195;-72
2021/09/28 04:19:34;;;;;;;2.33;2.10;;;;;;;12.78;79.56;102578.13;6267706;28;20184;-72
2021/09/28 04:22:39;;;;;;;3.22;1.98;;;;;;;12.73;79.23;102580.59;6266268;28;20413;-72
2021/09/28 04:25:44;;;;;;;2.10;2.00;;;;;;;12.86;78.78;102586.25;6267229;28;20246;-72
2021/09/28 04:28:48;;;;;;;2.13;2.03;;;;;;;12.76;79.47;102580.22;6267347;28;20275;-72
2021/09/28 04:31:52;;;;;;;4.13;2.40;;;;;;;12.81;79.04;102577.75;6265999;28;20358;-71
2021/09/28 04:34:56;;;;;;;4.93;2.38;;;;;;;12.88;79.03;102575.97;6266009;28;20378;-71
2021/09/28 04:38:01;;;;;;;2.30;2.15;;;;;;;12.84;78.95;102594.66;6266927;28;20200;-72
2021/09/28 04:41:07;;;;;;;4.75;2.42;;;;;;;12.84;78.67;102582.88;6267111;28;20248;-72
2021/09/28 04:44:11;;;;;;;4.00;2.45;;;;;;;12.85;78.73;102590.03;6267065;28;20185;-71
2021/09/28 04:47:15;;;;;;;2.25;2.00;;;;;;;12.89;78.38;102585.88;6265612;28;20538;-72
2021/09/28 04:50:20;;;;;;;8.48;2.30;;;;;;;12.83;78.54;102592.13;6267044;28;20231;-72
2021/09/28 04:53:25;;;;;;;3.03;2.50;;;;;;;12.80;78.10;102581.53;6266076;28;20216;-72
2021/09/28 04:56:31;;;;;;;6.13;2.42;;;;;;;12.80;78.17;102585.13;6266643;28;20189;-72
2021/09/28 04:59:35;;;;;;;7.60;2.20;;;;;;;12.73;77.69;102580.59;6265518;28;20192;-72
2021/09/28 05:02:39;;;;;;;2.40;2.20;;;;;;;12.73;77.30;102586.06;6265863;28;20201;-72
2021/09/28 05:05:43;;;;;;;2.00;1.90;;;;;;;12.84;76.26;102577.38;6265704;28;20237;-72
2021/09/28 05:08:48;;;;;;;3.47;1.80;;;;;;;12.76;76.15;102591.19;6265236;28;20209;-72
2021/09/28 05:11:55;;;;;;;5.03;2.22;;;;;;;12.75;76.67;102594.94;6265360;28;20188;-72
2021/09/28 05:14:59;;;;;;;2.97;2.22;;;;;;;12.78;76.22;102583.63;6266339;28;20203;-71
2021/09/28 05:18:04;;;;;;;3.08;2.10;;;;;;;12.77;75.75;102598.34;6266384;28;20193;-71
2021/09/28 05:21:08;;;;;;;4.20;1.73;;;;;;;12.83;74.85;102592.97;6265983;28;20193;-71
2021/09/28 05:24:12;;;;;;;1.85;1.80;;;;;;;12.76;75.67;102602.13;6265857;28;20185;-71
2021/09/28 05:27:18;;;;;;;1.90;1.90;;;;;;;12.83;75.41;102603.94;6263885;28;20293;-71
2021/09/28 05:30:23;;;;;;;2.95;2.38;;;;;;;12.79;76.10;102602.59;6264505;28;20348;-71
2021/09/28 05:33:27;;;;;;;2.83;2.30;;;;;;;12.84;75.91;102596.56;6264581;28;20495;-71
2021/09/28 05:36:31;;;;;;;6.95;2.30;;;;;;;12.87;75.72;102604.38;6264888;28;20185;-71
2021/09/28 05:39:35;;;;;;;4.32;1.98;;;;;;;12.78;76.74;102600.03;6264923;28;20188;-71
2021/09/28 05:42:41;;;;;;;1.73;1.63;;;;;;;12.86;77.41;102605.44;6265565;28;20201;-71
2021/09/28 05:45:45;;;;;;;13.82;2.20;;;;;;;12.88;76.16;102617.91;6264090;28;20185;-71
2021/09/28 05:48:49;;;;;;;2.00;1.88;;;;;;;12.87;76.37;102616.19;6265264;28;20275;-72
2021/09/28 05:51:55;;;;;;;1.70;1.70;;;;;;;12.89;76.13;102616.03;6264263;28;20216;-71
2021/09/28 05:55:01;;;;;;;8.55;2.15;;;;;;;12.93;76.09;102614.59;6265349;28;20251;-71
2021/09/28 05:58:07;;;;;;;1.85;1.75;;;;;;;12.90;76.80;102615.81;6264068;28;20499;-71
2021/09/28 06:01:11;;;;;;;1.98;1.88;;;;;;;12.84;76.85;102615.75;6264735;28;20204;-71
2021/09/28 06:04:16;;;;;;;2.58;1.83;;;;;;;12.89;76.93;102619.59;6264665;28;20228;-71
2021/09/28 06:07:22;;;;;;;1.83;1.70;;;;;;;12.80;78.26;102615.25;6263751;28;20185;-71
2021/09/28 06:10:27;;;;;;;3.75;1.90;;;;;;;12.92;77.72;102618.34;6264738;28;20185;-72
2021/09/28 06:13:36;;;;;;;4.07;2.00;;;;;;;12.99;77.18;102625.63;6263615;28;20380;-72
2021/09/28 06:16:40;;;;;;;1.90;1.90;;;;;;;12.95;77.21;102627.06;6263512;28;20476;-72
2021/09/28 06:19:44;;;;;;;3.10;2.90;;;;;;;12.94;77.20;102632.75;6264783;28;20196;-72
2021/09/28 06:22:51;;;;;;;1.75;1.70;;;;;;;12.96;77.73;102620.56;6264680;28;20252;-72
2021/09/28 06:25:55;;;;;;;2.05;1.90;;;;;;;12.99;77.59;102628.38;6264474;28;20185;-72
2021/09/28 06:29:01;;;;;;;1.98;1.92;;;;;;;13.04;77.00;102633.31;6263784;28;20500;-72
2021/09/28 06:32:07;;;;;;;4.05;1.80;;;;;;;13.08;76.54;102627.28;6263311;28;20248;-72
2021/09/28 06:35:12;;;;;;;5.75;1.95;;;;;;;13.11;76.25;102637.00;6264021;28;20192;-72
2021/09/28 06:38:17;;;;;;;5.93;2.00;;;;;;;13.11;76.66;102639.75;6263787;28;20193;-71
2021/09/28 06:41:21;;;;;;;2.47;2.15;;;;;;;13.11;75.72;102647.97;6263627;28;20238;-72
2021/09/28 06:44:28;;;;;;;2.25;2.03;;;;;;;13.14;76.52;102644.84;6263885;28;20192;-71
2021/09/28 06:47:32;;;;;;;1.98;1.98;;;;;;;13.12;76.62;102649.69;6264063;28;20268;-72
2021/09/28 06:50:36;;;;;;;5.00;2.10;;;;;;;13.06;75.03;102653.13;6263969;28;20216;-72
2021/09/28 06:53:41;;;;;;;6.32;2.05;;;;;;;13.12;74.87;102646.94;6263535;28;20185;-72
2021/09/28 06:56:45;;;;;;;2.80;2.00;;;;;;;13.07;75.50;102654.88;6262565;28;20216;-71
2021/09/28 06:59:50;;;;;;;2.97;2.10;;;;;;;13.15;74.24;102646.53;6262524;28;20504;-71
2021/09/28 07:02:54;;;;;;;8.15;2.65;;;;;;;13.21;73.87;102654.00;6262612;28;20207;-72
2021/09/28 07:05:59;;;;;;;3.75;2.25;;;;;;;13.15;73.59;102646.53;6262825;28;20319;-72
2021/09/28 07:09:03;;;;;;;6.93;1.98;;;;;;;13.17;73.70;102660.94;6263554;28;20220;-72
2021/09/28 07:12:10;;;;;;;12.18;2.00;;;;;;;13.20;74.53;102666.00;6262268;28;20419;-71
2021/09/28 07:15:16;;;;;;;5.30;1.80;;;;;;;13.16;73.84;102668.28;6262480;28;20191;-72
2021/09/28 07:18:20;;;;;;;4.20;1.95;;;;;;;13.21;73.51;102670.47;6262096;28;20256;-71
2021/09/28 07:21:25;;;;;;;1.75;1.75;;;;;;;13.12;74.20;102663.38;6263080;28;20184;-72
2021/09/28 07:24:29;;;;;;;1.88;1.77;;;;;;;13.06;73.75;102675.06;6262193;28;20491;-71
2021/09/28 07:27:33;;;;;;;1.75;1.70;;;;;;;13.17;73.73;102663.66;6262206;28;20193;-72
2021/09/28 07:30:40;;;;;;;2.45;2.00;;;;;;;13.18;73.95;102673.56;6261744;28;20565;-72
2021/09/28 07:33:44;;;;;;;1.67;1.67;;;;;;;13.23;75.14;102671.09;6261979;28;20370;-71
2021/09/28 07:36:48;;;;;;;2.63;1.80;;;;;;;13.30;73.89;102666.56;6261642;28;20192;-71
2021/09/28 07:39:52;;;;;;;2.15;1.60;;;;;;;13.30;73.83;102672.03;6261980;28;20195;-72
2021/09/28 07:42:57;;;;;;;2.05;1.80;;;;;;;13.29;75.05;102670.34;6262586;28;20225;-72
2021/09/28 07:46:02;;;;;;;2.25;1.98;;;;;;;13.26;75.62;102676.22;6262916;28;20224;-72
2021/09/28 07:49:06;;;;;;;2.83;1.90;;;;;;;13.22;75.84;102672.16;6261319;28;20435;-71
2021/09/28 07:52:11;;;;;;;5.18;1.80;;;;;;;13.17;76.22;102674.63;6261178;28;20185;-71
2021/09/28 07:55:15;;;;;;;2.00;1.98;;;;;;;13.26;76.61;102681.69;6262558;28;20184;-71
2021/09/28 07:58:19;;;;;;;6.50;2.20;;;;;;;13.21;76.27;102684.16;6262428;28;20196;-71
2021/09/28 08:01:24;;;;;;;2.05;2.05;;;;;;;13.34;75.29;102698.06;6262790;28;20206;-72
2021/09/28 08:04:31;;;;;;;3.05;1.90;;;;;;;13.37;75.85;102694.06;6261087;28;20611;-72
2021/09/28 08:07:35;;;;;;;1.85;1.75;;;;;;;13.39;75.36;102687.34;6262572;28;20185;-71
2021/09/28 08:10:40;;;;;;;3.95;1.98;;;;;;;13.41;75.42;102696.25;6262104;28;20271;-72
2021/09/28 08:13:44;;;;;;;1.90;1.80;;;;;;;13.51;74.49;102677.59;6261245;28;20421;-72
2021/09/28 08:16:49;;;;;;;7.50;2.25;;;;;;;13.54;75.51;102688.19;6262606;28;20192;-72
2021/09/28 08:19:54;;;;;;;1.75;1.63;;;;;;;13.63;73.19;102698.03;6261165;28;20481;-72
2021/09/28 08:23:00;;;;;;;3.38;1.88;;;;;;;13.52;72.99;102687.53;6262259;28;20263;-72
2021/09/28 08:29:22;;;;;;;1.98;1.98;;;;;;;13.50;73.91;102695.09;6260558;28;20220;-72
2021/09/28 08:32:28;;;;;;;2.58;1.77;;;;;;;13.64;74.01;102702.44;6261121;28;20193;-71
2021/09/28 08:35:32;;;;;;;2.85;2.45;;;;;;;13.59;72.88;102699.44;6262173;28;20252;-71
2021/09/28 08:38:36;;;;;;;1.80;1.70;;;;;;;13.46;73.18;102704.75;6261422;28;20201;-71
2021/09/28 08:41:42;;;;;;;4.28;1.77;;;;;;;13.45;74.13;102697.56;6261970;28;20188;-71
2021/09/28 08:44:47;;;;;;;2.25;2.10;;;;;;;13.59;73.13;102696.69;6260953;28;20415;-71
2021/09/28 08:47:52;;;;;;;2.35;2.15;;;;;;;13.50;74.27;102700.59;6261870;28;20220;-71
2021/09/28 08:50:56;;;;;;;6.97;1.98;;;;;;;13.56;73.81;102705.28;6260664;28;20220;-71
2021/09/28 08:54:00;;;;;;;1.75;1.73;;;;;;;13.66;74.03;102699.53;6260836;28;20192;-71
2021/09/28 08:57:05;;;;;;;3.63;2.28;;;;;;;13.72;74.48;102705.09;6261905;28;20185;-71
2021/09/28 09:00:23;;;;;;;4.22;2.05;;;;;;;13.64;74.56;102691.47;6261707;28;20195;-72
2021/09/28 09:03:31;;;;;;;2.10;2.00;;;;;;;13.64;74.70;102698.84;6263250;28;20398;-71
2021/09/28 09:06:36;;;;;;;1.90;1.80;;;;;;;13.75;73.68;102698.34;6265770;28;20189;-72
2021/09/28 09:09:46;;;;;;;2.38;1.73;;;;;;;13.70;74.16;102706.31;6266133;28;20240;-72
2021/09/28 09:12:50;;;;;;;3.92;1.92;;;;;;;13.74;73.77;102702.97;6266039;28;20185;-71
2021/09/28 09:15:57;;;;;;;5.47;1.90;;;;;;;13.72;73.37;102704.22;6266125;28;20184;-72
2021/09/28 09:19:12;;;;;;;1.75;1.70;;;;;;;13.78;73.09;102698.84;6266261;28;20196;-72
2021/09/28 09:22:24;;;;;;;2.00;1.80;;;;;;;13.82;73.47;102704.75;6266201;28;20185;-72
2021/09/28 09:25:28;;;;;;;1.85;1.70;;;;;;;13.77;73.94;102713.56;6264913;28;20247;-71
2021/09/28 09:28:34;;;;;;;1.80;1.70;;;;;;;13.90;73.21;102706.53;6265766;28;20192;-71
2021/09/28 09:31:44;;;;;;;2.00;1.85;;;;;;;13.86;73.40;102716.22;6265839;28;20314;-71
2021/09/28 09:34:54;;;;;;;2.15;2.00;;;;;;;13.79;72.87;102711.50;6264578;28;20535;-72
2021/09/28 09:38:07;;;;;;;5.22;1.88;;;;;;;13.85;72.83;102720.00;6265407;28;20407;-72
2021/09/28 09:41:12;;;;;;;2.08;1.75;;;;;;;13.89;73.12;102721.31;6265864;28;20270;-72
2021/09/28 09:44:17;;;;;;;3.78;2.20;;;;;;;13.79;72.39;102722.47;6264543;28;20442;-71
2021/09/28 09:47:26;;;;;;;4.03;2.08;;;;;;;13.87;72.76;102728.91;6264318;28;20252;-72
2021/09/28 09:50:32;;;;;;;1.98;1.92;;;;;;;13.91;72.31;102725.56;6264278;28;20434;-70
2021/09/28 09:53:38;;;;;;;2.85;2.17;;;;;;;14.03;71.66;102717.66;6264136;28;20196;-71
2021/09/28 09:56:46;;;;;;;3.20;2.10;;;;;;;14.01;71.15;102720.63;6265260;28;20225;-72
2021/09/28 09:59:50;;;;;;;2.17;2.05;;;;;;;13.99;71.44;102721.84;6265254;28;20217;-73
2021/09/28 10:02:56;;;;;;;5.05;2.63;;;;;;;14.11;71.40;102717.53;6264320;28;20555;-71
2021/09/28 10:06:02;;;;;;;2.90;2.20;;;;;;;14.07;70.85;102717.06;6264230;28;20280;-72
2021/09/28 10:09:08;;;;;;;2.22;2.13;;;;;;;14.06;70.84;102714.53;6265095;28;20457;-73
2021/09/28 10:12:13;;;;;;;2.22;2.13;;;;;;;14.13;71.02;102718.19;6264707;28;20228;-71
2021/09/28 10:15:19;;;;;;;2.42;1.88;;;;;;;14.25;69.76;102716.66;6263410;28;20380;-71
2021/09/28 10:18:38;;;;;;;2.85;2.10;;;;;;;14.24;70.21;102714.94;6264661;28;20192;-71
2021/09/28 10:21:44;;;;;;;2.78;2.17;;;;;;;14.22;69.24;102711.53;6263708;28;20275;-71
2021/09/28 10:24:49;;;;;;;2.88;1.80;;;;;;;14.30;68.67;102704.00;6263626;28;20481;-71
2021/09/28 10:27:54;;;;;;;2.80;2.00;;;;;;;14.22;68.22;102711.53;6263596;28;20184;-72
2021/09/28 10:30:59;;;;;;;4.88;3.50;;;;;;;14.31;69.15;102707.66;6262991;28;20213;-71
2021/09/28 10:34:03;;;;;;;2.30;2.30;;;;;;;14.42;68.09;102707.13;6264102;28;20185;-71
2021/09/28 10:37:09;;;;;;;2.58;2.00;;;;;;;14.40;68.14;102710.09;6264307;28;20221;-72
2021/09/28 10:40:48;;;;;;;2.35;2.25;;;;;;;14.64;67.65;102706.03;6263138;28;20468;-72
2021/09/28 10:43:52;;;;;;;3.58;2.10;;;;;;;14.70;67.23;102705.25;6263155;28;20186;-72
2021/09/28 10:46:58;;;;;;;2.15;1.95;;;;;;;14.66;67.02;102714.94;6263163;28;20251;-71
2021/09/28 10:50:22;;;;;;;3.92;2.17;;;;;;;14.68;66.48;102712.84;6262814;28;20406;-72
2021/09/28 10:53:36;;;;;;;2.17;2.13;;;;;;;14.57;66.44;102705.16;6262621;28;20375;-72
2021/09/28 10:56:53;;;;;;;2.55;2.03;;;;;;;14.60;67.27;102714.88;6262550;28;20251;-72
2021/09/28 11:00:01;;;;;;;2.20;2.20;;;;;;;14.53;66.96;102720.34;6263592;28;20248;-72
2021/09/28 11:03:08;;;;;;;5.18;2.10;;;;;;;14.54;67.14;102722.00;6263306;28;20200;-72
2021/09/28 11:06:14;;;;;;;2.15;2.15;;;;;;;14.51;66.47;102727.91;6263232;28;20240;-72
2021/09/28 11:09:22;;;;;;;3.35;2.00;;;;;;;14.55;66.85;102723.72;6263197;28;20252;-72
2021/09/28 11:12:26;;;;;;;2.28;2.13;;;;;;;14.57;67.46;102721.63;6262050;28;20403;-72
2021/09/28 11:15:30;;;;;;;7.10;2.22;;;;;;;14.58;66.96;102731.56;6263503;28;20223;-72
2021/09/28 11:18:38;;;;;;;2.33;2.30;;;;;;;14.54;67.95;102727.50;6263032;28;20206;-71
2021/09/28 11:21:44;;;;;;;2.92;2.05;;;;;;;14.61;68.15;102711.09;6262215;28;20385;-71
2021/09/28 11:24:50;;;;;;;4.90;2.30;;;;;;;14.72;68.79;102716.03;6261657;28;20409;-72
2021/09/28 11:28:01;;;;;;;2.10;1.90;;;;;;;14.63;67.94;102715.34;6261972;28;20231;-71
2021/09/28 11:31:07;;;;;;;2.78;2.20;;;;;;;14.79;67.63;102717.78;6261761;28;20581;-71
2021/09/28 11:34:11;;;;;;;4.68;2.47;;;;;;;14.77;66.74;102714.41;6262440;28;20193;-73
2021/09/28 11:37:15;;;;;;;3.05;2.10;;;;;;;14.63;67.00;102712.59;6262059;28;20251;-72
2021/09/28 11:40:20;;;;;;;2.17;2.08;;;;;;;14.69;68.12;102713.72;6262852;28;20252;-72
2021/09/28 11:43:28;;;;;;;2.90;2.35;;;;;;;14.89;67.24;102715.53;6261544;28;20212;-72
2021/09/28 11:46:33;;;;;;;2.33;2.20;;;;;;;14.85;67.90;102714.25;6262968;28;20252;-73
2021/09/28 11:49:48;;;;;;;8.55;2.13;;;;;;;14.92;67.47;102719.78;6262570;28;20216;-72
2021/09/28 11:52:54;;;;;;;2.45;2.25;;;;;;;14.90;67.30;102717.25;6262509;28;20280;-71
2021/09/28 11:55:59;;;;;;;3.75;2.08;;;;;;;14.89;67.07;102732.03;6261440;28;20492;-72
2021/09/28 11:59:04;;;;;;;2.28;2.28;;;;;;;14.86;67.22;102721.47;6261549;28;20351;-72
2021/09/28 12:02:12;;;;;;;2.40;2.05;;;;;;;14.80;66.88;102721.38;6261527;28;20205;-72
2021/09/28 12:05:34;;;;;;;4.63;2.15;;;;;;;14.82;67.88;102725.63;6262671;28;20242;-72
2021/09/28 12:08:38;;;;;;;2.47;2.28;;;;;;;14.75;68.67;102724.75;6261371;28;20408;-72
2021/09/28 12:12:03;;;;;;;5.57;2.47;;;;;;;14.85;68.38;102736.22;6262338;28;20220;-72
2021/09/28 12:15:09;;;;;;;2.78;2.40;;;;;;;14.78;67.40;102724.34;6262420;28;20192;-72
2021/09/28 12:18:17;;;;;;;2.38;2.17;;;;;;;14.81;68.44;102717.59;6262662;28;20184;-72
2021/09/28 12:21:26;;;;;;;4.40;3.38;;;;;;;14.71;67.68;102728.94;6262077;28;20299;-72
2021/09/28 12:24:41;;;;;;;4.25;2.55;;;;;;;14.71;67.90;102723.47;6261656;28;20216;-71
2021/09/28 12:27:55;;;;;;;2.90;2.67;;;;;;;14.66;68.18;102725.91;6261240;28;20550;-71
2021/09/28 12:31:02;;;;;;;2.53;2.33;;;;;;;14.69;68.20;102733.78;6262156;28;20216;-72
2021/09/28 12:34:07;;;;;;;7.50;3.10;;;;;;;14.70;68.76;102732.72;6261060;28;20535;-71
2021/09/28 12:37:12;;;;;;;2.40;2.40;;;;;;;14.74;69.07;102725.78;6263538;28;20436;-72
2021/09/28 12:40:20;;;;;;;3.15;2.92;;;;;;;14.66;69.55;102731.41;6265988;28;20439;-72
2021/09/28 12:43:27;;;;;;;3.38;2.53;;;;;;;14.66;69.92;102731.41;6265872;28;20524;-72
2021/09/28 12:46:31;;;;;;;6.65;2.90;;;;;;;14.58;69.51;102745.31;6265819;28;20534;-72
2021/09/28 12:49:36;;;;;;;4.70;2.83;;;;;;;14.49;69.57;102741.00;6267117;28;20185;-71
2021/09/28 12:52:40;;;;;;;2.95;2.78;;;;;;;14.57;70.19;102742.75;6267023;28;20212;-72
2021/09/28 12:55:46;;;;;;;6.55;2.70;;;;;;;14.48;70.19;102733.81;6266461;28;20185;-71
2021/09/28 12:58:52;;;;;;;3.28;2.83;;;;;;;14.52;70.66;102740.59;6266918;28;20221;-72
2021/09/28 13:01:57;;;;;;;3.38;2.80;;;;;;;14.56;70.33;102747.38;6265897;28;20586;-71
2021/09/28 13:05:04;;;;;;;3.55;2.72;;;;;;;14.51;70.52;102749.88;6266085;28;20240;-72
2021/09/28 13:08:10;;;;;;;3.08;2.70;;;;;;;14.54;70.99;102754.97;6266656;28;20185;-72
2021/09/28 13:11:15;;;;;;;3.35;3.00;;;;;;;14.50;71.12;102753.69;6265617;28;20185;-71
2021/09/28 13:14:20;;;;;;;3.47;3.10;;;;;;;14.54;70.87;102754.97;6266382;28;20213;-72
2021/09/28 13:17:24;;;;;;;2.90;2.80;;;;;;;14.63;70.41;102753.81;6266455;28;20189;-71
2021/09/28 13:20:29;;;;;;;3.25;3.00;;;;;;;14.61;70.71;102761.38;6265938;28;20192;-72
2021/09/28 13:23:33;;;;;;;3.28;2.97;;;;;;;14.40;72.42;102765.00;6265703;28;20268;-74
2021/09/28 13:26:38;;;;;;;3.35;3.13;;;;;;;14.47;70.62;102759.56;6266010;28;20225;-73
2021/09/28 13:29:44;;;;;;;4.60;2.67;;;;;;;14.63;70.38;102759.31;6265045;28;20399;-73
2021/09/28 13:32:48;;;;;;;2.53;2.42;;;;;;;14.47;70.54;102770.56;6265267;28;20212;-73
2021/09/28 13:35:52;;;;;;;3.00;2.80;;;;;;;14.61;71.08;102766.88;6264585;28;20543;-73
2021/09/28 13:38:57;;;;;;;3.30;3.08;;;;;;;14.59;71.34;102762.63;6265305;28;20191;-74
2021/09/28 13:42:01;;;;;;;6.72;2.60;;;;;;;14.41;72.61;102766.69;6265320;28;20185;-72
2021/09/28 13:45:07;;;;;;;2.88;2.70;;;;;;;14.51;71.79;102766.34;6264546;28;20192;-72
2021/09/28 13:48:13;;;;;;;3.03;2.55;;;;;;;14.38;72.58;102771.72;6264827;28;20217;-72
2021/09/28 13:51:18;;;;;;;2.90;2.80;;;;;;;14.50;72.22;102769.31;6265310;28;20263;-72
2021/09/28 13:54:22;;;;;;;3.65;3.45;;;;;;;14.56;72.24;102769.34;6265454;28;20312;-72
2021/09/28 13:57:26;;;;;;;3.33;2.70;;;;;;;14.46;72.18;102774.34;6264402;28;20438;-73
2021/09/28 14:00:32;;;;;;;3.00;2.80;;;;;;;14.45;72.52;102778.16;6265085;28;20248;-72
2021/09/28 14:03:36;;;;;;;3.42;3.08;;;;;;;14.45;72.18;102772.66;6264901;28;20372;-72
2021/09/28 14:06:42;;;;;;;4.30;3.10;;;;;;;14.45;72.65;102783.63;6264300;28;20185;-72
2021/09/28 14:09:46;;;;;;;3.20;2.85;;;;;;;14.37;73.93;102781.00;6263890;28;20247;-72
2021/09/28 14:12:51;;;;;;;3.50;3.30;;;;;;;14.35;74.64;102788.59;6263757;28;20362;-73
2021/09/28 14:15:57;;;;;;;6.30;3.50;;;;;;;14.49;73.58;102771.19;6265060;28;20283;-72
2021/09/28 14:19:01;;;;;;;3.90;3.55;;;;;;;14.30;75.58;102774.56;6263517;28;20417;-73
2021/09/28 14:22:05;;;;;;;5.50;3.38;;;;;;;14.39;75.50;102773.44;6264882;28;20185;-72
2021/09/28 14:25:09;;;;;;;5.22;3.33;;;;;;;14.43;74.33;102774.75;6264775;28;20189;-73